logo
Rechercher aéroport 
image banner adimage banner adimage banner ad
image banner ad

SETB - Timbre

Situé à Buena F, Ecuador

ICAO - , IATA -

Données fournies par Airmate  

Information générale

Coordonnées: N0°48'59" W79°36'30"
Élévation : 148 feet MSL.
Variation magnétique : -3° East
Voir autres Aéroports à Esmeraldas

Données opérationnelles

Special qualification required
Heure actuelle UTC:
Heure actuelle locale:
METAR: SETN 131800Z 02002KT 9999 SCT033 BKN100 31/27 Q1010 RMK A2984
Voir NOTAMs / SUP AIP / TFR affectant cet aéroport [VIEW]
Fréquences de communication: [VIEW]

Pistes:

Identifiant RWYQFULongueur (ft)Largeur (ft)SurfaceLDA (ft)
29291°277818ASPH
11111°277818ASPH

Coordonnées de l'aéroport

Adresse: Buena F Ecuador

Vue satellite de SETB